sensor_id;sensor_type;location;lat;lon;timestamp;temperature;humidity
77467;DHT22;66564;42.482;25.548;2023-07-13T00:01:19;27.38;55.99
77467;DHT22;66564;42.482;25.548;2023-07-13T00:03:44;27.33;55.23
77467;DHT22;66564;42.482;25.548;2023-07-13T00:06:10;27.26;54.96
77467;DHT22;66564;42.482;25.548;2023-07-13T00:08:35;27.30;55.99
77467;DHT22;66564;42.482;25.548;2023-07-13T00:11:01;27.30;55.68
77467;DHT22;66564;42.482;25.548;2023-07-13T00:13:28;27.28;56.20
77467;DHT22;66564;42.482;25.548;2023-07-13T00:15:54;27.20;56.10
77467;DHT22;66564;42.482;25.548;2023-07-13T00:18:21;27.18;56.18
77467;DHT22;66564;42.482;25.548;2023-07-13T00:20:47;27.13;55.84
77467;DHT22;66564;42.482;25.548;2023-07-13T00:23:13;27.09;56.23
77467;DHT22;66564;42.482;25.548;2023-07-13T00:25:39;27.06;56.28
77467;DHT22;66564;42.482;25.548;2023-07-13T00:28:05;27.03;56.39
77467;DHT22;66564;42.482;25.548;2023-07-13T00:30:30;27.00;55.33
77467;DHT22;66564;42.482;25.548;2023-07-13T00:32:56;26.99;55.95
77467;DHT22;66564;42.482;25.548;2023-07-13T00:35:22;26.98;56.43
77467;DHT22;66564;42.482;25.548;2023-07-13T00:37:48;26.91;56.44
77467;DHT22;66564;42.482;25.548;2023-07-13T00:40:14;26.92;56.19
77467;DHT22;66564;42.482;25.548;2023-07-13T00:42:41;26.92;54.04
77467;DHT22;66564;42.482;25.548;2023-07-13T00:47:52;26.96;56.30
77467;DHT22;66564;42.482;25.548;2023-07-13T00:50:19;26.92;55.54
77467;DHT22;66564;42.482;25.548;2023-07-13T00:52:49;26.92;55.26
77467;DHT22;66564;42.482;25.548;2023-07-13T00:55:16;26.91;53.66
77467;DHT22;66564;42.482;25.548;2023-07-13T00:57:43;26.88;54.47
77467;DHT22;66564;42.482;25.548;2023-07-13T01:00:09;26.91;54.60
77467;DHT22;66564;42.482;25.548;2023-07-13T01:02:38;26.91;54.55
77467;DHT22;66564;42.482;25.548;2023-07-13T01:05:14;26.92;54.42
77467;DHT22;66564;42.482;25.548;2023-07-13T01:07:42;26.92;54.15
77467;DHT22;66564;42.482;25.548;2023-07-13T01:10:09;26.94;54.20
77467;DHT22;66564;42.482;25.548;2023-07-13T01:12:35;26.91;53.38
77467;DHT22;66564;42.482;25.548;2023-07-13T01:15:01;26.94;53.88
77467;DHT22;66564;42.482;25.548;2023-07-13T01:17:28;26.96;54.51
77467;DHT22;66564;42.482;25.548;2023-07-13T01:19:54;27.03;54.19
77467;DHT22;66564;42.482;25.548;2023-07-13T01:22:20;26.95;54.39
77467;DHT22;66564;42.482;25.548;2023-07-13T01:24:50;26.89;54.86
77467;DHT22;66564;42.482;25.548;2023-07-13T01:27:20;26.88;53.82
77467;DHT22;66564;42.482;25.548;2023-07-13T01:29:46;26.86;54.90
77467;DHT22;66564;42.482;25.548;2023-07-13T01:32:22;26.79;55.63
77467;DHT22;66564;42.482;25.548;2023-07-13T01:34:53;26.74;55.13
77467;DHT22;66564;42.482;25.548;2023-07-13T01:37:19;26.67;55.00
77467;DHT22;66564;42.482;25.548;2023-07-13T01:39:45;26.61;54.22
77467;DHT22;66564;42.482;25.548;2023-07-13T01:42:11;26.58;54.38
77467;DHT22;66564;42.482;25.548;2023-07-13T01:44:37;26.58;55.13
77467;DHT22;66564;42.482;25.548;2023-07-13T01:47:02;26.51;55.47
77467;DHT22;66564;42.482;25.548;2023-07-13T01:49:28;26.48;55.85
77467;DHT22;66564;42.482;25.548;2023-07-13T01:51:53;26.49;55.18
77467;DHT22;66564;42.482;25.548;2023-07-13T01:54:19;26.40;55.05
77467;DHT22;66564;42.482;25.548;2023-07-13T01:56:44;26.35;54.54
77467;DHT22;66564;42.482;25.548;2023-07-13T01:59:10;26.30;55.12
77467;DHT22;66564;42.482;25.548;2023-07-13T02:01:35;26.30;55.58
77467;DHT22;66564;42.482;25.548;2023-07-13T02:04:01;26.27;55.56
77467;DHT22;66564;42.482;25.548;2023-07-13T02:06:26;26.25;54.94
77467;DHT22;66564;42.482;25.548;2023-07-13T02:08:52;26.31;56.25
77467;DHT22;66564;42.482;25.548;2023-07-13T02:11:17;26.37;55.18
77467;DHT22;66564;42.482;25.548;2023-07-13T02:13:43;26.30;55.46
77467;DHT22;66564;42.482;25.548;2023-07-13T02:16:09;26.28;56.01
77467;DHT22;66564;42.482;25.548;2023-07-13T02:18:34;26.25;55.29
77467;DHT22;66564;42.482;25.548;2023-07-13T02:21:00;26.25;55.14
77467;DHT22;66564;42.482;25.548;2023-07-13T02:23:25;26.21;55.87
77467;DHT22;66564;42.482;25.548;2023-07-13T02:25:58;26.25;55.43
77467;DHT22;66564;42.482;25.548;2023-07-13T02:28:24;26.23;55.48
77467;DHT22;66564;42.482;25.548;2023-07-13T02:30:50;26.21;54.93
77467;DHT22;66564;42.482;25.548;2023-07-13T02:33:15;26.21;54.95
77467;DHT22;66564;42.482;25.548;2023-07-13T02:35:41;26.17;55.14
77467;DHT22;66564;42.482;25.548;2023-07-13T02:38:06;26.11;55.30
77467;DHT22;66564;42.482;25.548;2023-07-13T02:40:32;26.07;54.89
77467;DHT22;66564;42.482;25.548;2023-07-13T02:43:02;26.08;54.29
77467;DHT22;66564;42.482;25.548;2023-07-13T02:45:28;26.13;54.85
77467;DHT22;66564;42.482;25.548;2023-07-13T02:47:53;26.16;54.48
77467;DHT22;66564;42.482;25.548;2023-07-13T02:50:19;26.17;53.92
77467;DHT22;66564;42.482;25.548;2023-07-13T02:52:44;26.20;54.88
77467;DHT22;66564;42.482;25.548;2023-07-13T02:55:10;26.17;54.45
77467;DHT22;66564;42.482;25.548;2023-07-13T02:57:35;26.20;54.37
77467;DHT22;66564;42.482;25.548;2023-07-13T03:00:02;26.25;55.07
77467;DHT22;66564;42.482;25.548;2023-07-13T03:02:31;26.31;54.64
77467;DHT22;66564;42.482;25.548;2023-07-13T03:04:57;26.27;54.96
77467;DHT22;66564;42.482;25.548;2023-07-13T03:07:22;26.27;53.51
77467;DHT22;66564;42.482;25.548;2023-07-13T03:09:48;26.30;54.82
77467;DHT22;66564;42.482;25.548;2023-07-13T03:12:13;26.35;54.16
77467;DHT22;66564;42.482;25.548;2023-07-13T03:14:39;26.37;53.73
77467;DHT22;66564;42.482;25.548;2023-07-13T03:17:04;26.38;53.84
77467;DHT22;66564;42.482;25.548;2023-07-13T03:19:30;26.34;53.50
77467;DHT22;66564;42.482;25.548;2023-07-13T03:21:55;26.38;55.52
77467;DHT22;66564;42.482;25.548;2023-07-13T03:24:21;26.40;55.26
77467;DHT22;66564;42.482;25.548;2023-07-13T03:26:48;26.43;55.67
77467;DHT22;66564;42.482;25.548;2023-07-13T03:29:14;26.43;55.15
77467;DHT22;66564;42.482;25.548;2023-07-13T03:31:39;26.41;54.86
77467;DHT22;66564;42.482;25.548;2023-07-13T03:34:05;26.41;55.07
77467;DHT22;66564;42.482;25.548;2023-07-13T03:36:32;26.43;54.89
77467;DHT22;66564;42.482;25.548;2023-07-13T03:39:00;26.45;54.42
77467;DHT22;66564;42.482;25.548;2023-07-13T03:41:26;26.47;54.26
77467;DHT22;66564;42.482;25.548;2023-07-13T03:43:52;26.51;54.86
77467;DHT22;66564;42.482;25.548;2023-07-13T03:46:18;26.67;55.14
77467;DHT22;66564;42.482;25.548;2023-07-13T03:48:45;26.65;55.16
77467;DHT22;66564;42.482;25.548;2023-07-13T03:51:12;26.64;54.99
77467;DHT22;66564;42.482;25.548;2023-07-13T03:53:41;26.65;54.74
77467;DHT22;66564;42.482;25.548;2023-07-13T03:56:07;26.67;55.67
77467;DHT22;66564;42.482;25.548;2023-07-13T03:58:36;26.76;55.25
77467;DHT22;66564;42.482;25.548;2023-07-13T04:01:03;26.79;55.55
77467;DHT22;66564;42.482;25.548;2023-07-13T04:03:30;26.88;55.41
77467;DHT22;66564;42.482;25.548;2023-07-13T04:05:58;26.94;55.56
77467;DHT22;66564;42.482;25.548;2023-07-13T04:08:29;26.98;55.24
77467;DHT22;66564;42.482;25.548;2023-07-13T04:10:55;26.94;55.11
77467;DHT22;66564;42.482;25.548;2023-07-13T04:13:21;26.95;55.14
77467;DHT22;66564;42.482;25.548;2023-07-13T04:15:46;27.00;55.04
77467;DHT22;66564;42.482;25.548;2023-07-13T04:18:12;27.03;54.87
77467;DHT22;66564;42.482;25.548;2023-07-13T04:20:37;27.06;55.02
77467;DHT22;66564;42.482;25.548;2023-07-13T04:23:03;27.12;54.93
77467;DHT22;66564;42.482;25.548;2023-07-13T04:25:28;27.20;55.11
77467;DHT22;66564;42.482;25.548;2023-07-13T04:27:54;27.19;54.87
77467;DHT22;66564;42.482;25.548;2023-07-13T04:30:20;27.15;54.80
77467;DHT22;66564;42.482;25.548;2023-07-13T04:32:46;27.16;54.62
77467;DHT22;66564;42.482;25.548;2023-07-13T04:35:11;27.12;54.95
77467;DHT22;66564;42.482;25.548;2023-07-13T04:37:36;27.22;54.75
77467;DHT22;66564;42.482;25.548;2023-07-13T04:40:02;27.26;55.08
77467;DHT22;66564;42.482;25.548;2023-07-13T04:42:29;27.29;55.83
77467;DHT22;66564;42.482;25.548;2023-07-13T04:44:55;27.35;56.10
77467;DHT22;66564;42.482;25.548;2023-07-13T04:47:20;27.33;56.15
77467;DHT22;66564;42.482;25.548;2023-07-13T04:49:46;27.33;56.23
77467;DHT22;66564;42.482;25.548;2023-07-13T04:52:12;27.35;55.25
77467;DHT22;66564;42.482;25.548;2023-07-13T04:54:38;27.36;55.80
77467;DHT22;66564;42.482;25.548;2023-07-13T04:57:04;27.30;55.72
77467;DHT22;66564;42.482;25.548;2023-07-13T04:59:34;27.32;55.68
77467;DHT22;66564;42.482;25.548;2023-07-13T05:01:59;27.42;56.03
77467;DHT22;66564;42.482;25.548;2023-07-13T05:04:26;27.42;55.33
77467;DHT22;66564;42.482;25.548;2023-07-13T05:06:52;27.43;54.86
77467;DHT22;66564;42.482;25.548;2023-07-13T05:09:17;27.46;54.81
77467;DHT22;66564;42.482;25.548;2023-07-13T05:11:43;27.47;55.01
77467;DHT22;66564;42.482;25.548;2023-07-13T05:14:09;27.50;54.96
77467;DHT22;66564;42.482;25.548;2023-07-13T05:16:35;27.56;55.17
77467;DHT22;66564;42.482;25.548;2023-07-13T05:19:01;27.54;55.55
77467;DHT22;66564;42.482;25.548;2023-07-13T05:21:27;27.61;55.03
77467;DHT22;66564;42.482;25.548;2023-07-13T05:23:52;27.69;55.25
77467;DHT22;66564;42.482;25.548;2023-07-13T05:26:18;27.79;55.67
77467;DHT22;66564;42.482;25.548;2023-07-13T05:28:44;27.87;55.52
77467;DHT22;66564;42.482;25.548;2023-07-13T05:31:10;27.91;55.20
77467;DHT22;66564;42.482;25.548;2023-07-13T05:33:35;28.05;54.37
77467;DHT22;66564;42.482;25.548;2023-07-13T05:36:01;28.11;53.70
77467;DHT22;66564;42.482;25.548;2023-07-13T05:38:27;28.21;54.04
77467;DHT22;66564;42.482;25.548;2023-07-13T05:40:54;28.35;54.51
77467;DHT22;66564;42.482;25.548;2023-07-13T05:43:21;28.48;55.67
77467;DHT22;66564;42.482;25.548;2023-07-13T05:45:47;28.59;55.46
77467;DHT22;66564;42.482;25.548;2023-07-13T05:48:12;28.74;54.71
77467;DHT22;66564;42.482;25.548;2023-07-13T05:50:38;28.82;54.84
77467;DHT22;66564;42.482;25.548;2023-07-13T05:53:03;28.95;54.09
77467;DHT22;66564;42.482;25.548;2023-07-13T05:55:29;29.06;52.10
77467;DHT22;66564;42.482;25.548;2023-07-13T05:57:54;29.18;51.62
77467;DHT22;66564;42.482;25.548;2023-07-13T06:00:20;29.34;48.90
77467;DHT22;66564;42.482;25.548;2023-07-13T06:02:45;29.49;48.33
77467;DHT22;66564;42.482;25.548;2023-07-13T06:05:11;29.69;47.97
77467;DHT22;66564;42.482;25.548;2023-07-13T06:07:37;29.86;47.41
77467;DHT22;66564;42.482;25.548;2023-07-13T06:10:03;30.03;46.90
77467;DHT22;66564;42.482;25.548;2023-07-13T06:12:30;30.21;46.62
77467;DHT22;66564;42.482;25.548;2023-07-13T06:14:56;30.37;46.00
77467;DHT22;66564;42.482;25.548;2023-07-13T06:17:21;30.55;45.92
77467;DHT22;66564;42.482;25.548;2023-07-13T06:19:47;30.75;45.35
77467;DHT22;66564;42.482;25.548;2023-07-13T06:22:12;30.92;45.01
77467;DHT22;66564;42.482;25.548;2023-07-13T06:24:38;31.08;44.36
77467;DHT22;66564;42.482;25.548;2023-07-13T06:27:03;31.26;43.78
77467;DHT22;66564;42.482;25.548;2023-07-13T06:29:29;31.47;42.70
77467;DHT22;66564;42.482;25.548;2023-07-13T06:31:54;31.66;42.90
77467;DHT22;66564;42.482;25.548;2023-07-13T06:34:20;31.78;42.59
77467;DHT22;66564;42.482;25.548;2023-07-13T06:36:45;31.94;41.82
77467;DHT22;66564;42.482;25.548;2023-07-13T06:39:11;32.11;41.81
77467;DHT22;66564;42.482;25.548;2023-07-13T06:41:36;32.23;41.33
77467;DHT22;66564;42.482;25.548;2023-07-13T06:44:03;32.42;41.65
77467;DHT22;66564;42.482;25.548;2023-07-13T06:46:29;32.60;41.66
77467;DHT22;66564;42.482;25.548;2023-07-13T06:48:55;32.72;40.70
77467;DHT22;66564;42.482;25.548;2023-07-13T06:51:22;32.94;40.74
77467;DHT22;66564;42.482;25.548;2023-07-13T06:53:48;33.16;40.74
77467;DHT22;66564;42.482;25.548;2023-07-13T06:56:15;33.41;40.35
77467;DHT22;66564;42.482;25.548;2023-07-13T06:58:40;33.67;39.67
77467;DHT22;66564;42.482;25.548;2023-07-13T07:01:06;33.94;38.58
77467;DHT22;66564;42.482;25.548;2023-07-13T07:03:31;34.17;37.78
77467;DHT22;66564;42.482;25.548;2023-07-13T07:06:19;34.43;37.23
77467;DHT22;66564;42.482;25.548;2023-07-13T07:08:45;34.60;36.05
77467;DHT22;66564;42.482;25.548;2023-07-13T07:11:13;34.72;36.48
77467;DHT22;66564;42.482;25.548;2023-07-13T07:13:39;34.87;37.39
77467;DHT22;66564;42.482;25.548;2023-07-13T07:16:05;35.01;37.47
77467;DHT22;66564;42.482;25.548;2023-07-13T07:18:31;35.18;36.94
77467;DHT22;66564;42.482;25.548;2023-07-13T07:20:56;35.31;36.86
77467;DHT22;66564;42.482;25.548;2023-07-13T07:23:22;35.43;35.02
77467;DHT22;66564;42.482;25.548;2023-07-13T07:25:47;35.50;34.78
77467;DHT22;66564;42.482;25.548;2023-07-13T07:28:15;35.56;35.04
77467;DHT22;66564;42.482;25.548;2023-07-13T07:30:44;35.69;35.84
77467;DHT22;66564;42.482;25.548;2023-07-13T07:33:09;35.83;36.21
77467;DHT22;66564;42.482;25.548;2023-07-13T07:35:34;35.94;36.82
77467;DHT22;66564;42.482;25.548;2023-07-13T07:38:00;36.10;36.27
77467;DHT22;66564;42.482;25.548;2023-07-13T07:40:25;36.21;35.87
77467;DHT22;66564;42.482;25.548;2023-07-13T07:42:51;36.33;35.15
77467;DHT22;66564;42.482;25.548;2023-07-13T07:45:17;36.39;35.57
77467;DHT22;66564;42.482;25.548;2023-07-13T07:47:42;36.47;35.10
77467;DHT22;66564;42.482;25.548;2023-07-13T07:50:08;36.55;35.31
77467;DHT22;66564;42.482;25.548;2023-07-13T07:52:34;36.64;35.31
77467;DHT22;66564;42.482;25.548;2023-07-13T07:55:00;36.60;35.31
77467;DHT22;66564;42.482;25.548;2023-07-13T07:57:25;36.66;35.12
77467;DHT22;66564;42.482;25.548;2023-07-13T07:59:51;36.77;34.56
77467;DHT22;66564;42.482;25.548;2023-07-13T08:02:16;36.85;34.48
77467;DHT22;66564;42.482;25.548;2023-07-13T08:04:42;36.87;34.39
77467;DHT22;66564;42.482;25.548;2023-07-13T08:07:08;36.95;35.48
77467;DHT22;66564;42.482;25.548;2023-07-13T08:09:33;37.07;34.54
77467;DHT22;66564;42.482;25.548;2023-07-13T08:11:59;37.17;34.64
77467;DHT22;66564;42.482;25.548;2023-07-13T08:14:25;37.25;34.72
77467;DHT22;66564;42.482;25.548;2023-07-13T08:16:50;37.31;34.45
77467;DHT22;66564;42.482;25.548;2023-07-13T08:19:16;37.38;34.32
77467;DHT22;66564;42.482;25.548;2023-07-13T08:21:41;37.49;34.23
77467;DHT22;66564;42.482;25.548;2023-07-13T08:24:09;37.59;34.67
77467;DHT22;66564;42.482;25.548;2023-07-13T08:26:34;37.62;34.89
77467;DHT22;66564;42.482;25.548;2023-07-13T08:29:00;37.69;34.74
77467;DHT22;66564;42.482;25.548;2023-07-13T08:31:25;37.75;34.86
77467;DHT22;66564;42.482;25.548;2023-07-13T08:33:51;37.83;34.62
77467;DHT22;66564;42.482;25.548;2023-07-13T08:36:16;37.88;34.46
77467;DHT22;66564;42.482;25.548;2023-07-13T08:38:42;37.90;34.43
77467;DHT22;66564;42.482;25.548;2023-07-13T08:41:17;37.86;35.03
77467;DHT22;66564;42.482;25.548;2023-07-13T08:43:51;38.00;34.65
77467;DHT22;66564;42.482;25.548;2023-07-13T08:46:24;38.00;33.80
77467;DHT22;66564;42.482;25.548;2023-07-13T08:48:51;37.98;34.61
77467;DHT22;66564;42.482;25.548;2023-07-13T08:51:35;38.06;34.08
77467;DHT22;66564;42.482;25.548;2023-07-13T08:54:11;37.99;33.77
77467;DHT22;66564;42.482;25.548;2023-07-13T08:56:44;37.86;35.08
77467;DHT22;66564;42.482;25.548;2023-07-13T08:59:13;37.69;35.02
77467;DHT22;66564;42.482;25.548;2023-07-13T09:02:05;37.54;34.88
77467;DHT22;66564;42.482;25.548;2023-07-13T09:04:44;37.65;35.22
77467;DHT22;66564;42.482;25.548;2023-07-13T09:10:17;37.90;34.76
77467;DHT22;66564;42.482;25.548;2023-07-13T09:15:23;38.03;34.15
77467;DHT22;66564;42.482;25.548;2023-07-13T09:17:51;38.10;33.74
77467;DHT22;66564;42.482;25.548;2023-07-13T09:23:31;38.29;32.91
77467;DHT22;66564;42.482;25.548;2023-07-13T09:26:04;38.51;32.33
77467;DHT22;66564;42.482;25.548;2023-07-13T09:28:39;38.59;32.47
77467;DHT22;66564;42.482;25.548;2023-07-13T09:31:32;38.70;31.69
77467;DHT22;66564;42.482;25.548;2023-07-13T09:33:59;38.73;32.32
77467;DHT22;66564;42.482;25.548;2023-07-13T09:36:31;38.83;31.40
77467;DHT22;66564;42.482;25.548;2023-07-13T09:39:35;38.93;31.32
77467;DHT22;66564;42.482;25.548;2023-07-13T09:44:39;38.94;30.67
77467;DHT22;66564;42.482;25.548;2023-07-13T09:47:21;39.01;31.36
77467;DHT22;66564;42.482;25.548;2023-07-13T09:50:02;38.91;31.09
77467;DHT22;66564;42.482;25.548;2023-07-13T09:52:41;38.91;30.48
77467;DHT22;66564;42.482;25.548;2023-07-13T09:55:24;38.98;31.01
77467;DHT22;66564;42.482;25.548;2023-07-13T09:57:50;38.87;30.41
77467;DHT22;66564;42.482;25.548;2023-07-13T10:00:28;39.04;30.32
77467;DHT22;66564;42.482;25.548;2023-07-13T10:03:04;39.27;30.02
77467;DHT22;66564;42.482;25.548;2023-07-13T10:05:41;39.37;29.93
77467;DHT22;66564;42.482;25.548;2023-07-13T10:08:35;39.58;29.26
77467;DHT22;66564;42.482;25.548;2023-07-13T10:11:12;39.70;29.62
77467;DHT22;66564;42.482;25.548;2023-07-13T10:13:43;39.31;28.83
77467;DHT22;66564;42.482;25.548;2023-07-13T10:16:09;39.47;29.25
77467;DHT22;66564;42.482;25.548;2023-07-13T10:18:45;39.64;28.78
77467;DHT22;66564;42.482;25.548;2023-07-13T10:21:20;39.75;28.46
77467;DHT22;66564;42.482;25.548;2023-07-13T10:27:28;39.85;29.08
77467;DHT22;66564;42.482;25.548;2023-07-13T10:30:39;39.95;29.30
77467;DHT22;66564;42.482;25.548;2023-07-13T10:33:10;39.69;27.96
77467;DHT22;66564;42.482;25.548;2023-07-13T10:35:42;39.84;27.87
77467;DHT22;66564;42.482;25.548;2023-07-13T10:38:19;40.08;27.96
77467;DHT22;66564;42.482;25.548;2023-07-13T10:40:58;40.12;27.31
77467;DHT22;66564;42.482;25.548;2023-07-13T10:43:31;40.20;27.06
77467;DHT22;66564;42.482;25.548;2023-07-13T10:46:00;40.42;27.31
77467;DHT22;66564;42.482;25.548;2023-07-13T10:48:27;40.50;26.34
77467;DHT22;66564;42.482;25.548;2023-07-13T10:50:57;40.56;25.07
77467;DHT22;66564;42.482;25.548;2023-07-13T10:53:28;40.52;26.13
77467;DHT22;66564;42.482;25.548;2023-07-13T10:58:33;40.62;26.60
77467;DHT22;66564;42.482;25.548;2023-07-13T11:04:00;40.74;25.96
77467;DHT22;66564;42.482;25.548;2023-07-13T11:09:00;40.67;26.07
77467;DHT22;66564;42.482;25.548;2023-07-13T11:14:09;40.77;24.90
77467;DHT22;66564;42.482;25.548;2023-07-13T11:16:49;40.88;24.98
77467;DHT22;66564;42.482;25.548;2023-07-13T11:25:31;41.08;24.66
77467;DHT22;66564;42.482;25.548;2023-07-13T11:27:38;41.17;24.48
77467;DHT22;66564;42.482;25.548;2023-07-13T11:30:25;41.23;24.49
77467;DHT22;66564;42.482;25.548;2023-07-13T11:38:32;41.10;24.88
77467;DHT22;66564;42.482;25.548;2023-07-13T11:41:03;41.03;24.44
77467;DHT22;66564;42.482;25.548;2023-07-13T11:43:29;41.00;24.67
77467;DHT22;66564;42.482;25.548;2023-07-13T11:45:54;40.83;24.47
77467;DHT22;66564;42.482;25.548;2023-07-13T11:48:26;40.93;24.16
77467;DHT22;66564;42.482;25.548;2023-07-13T11:50:54;40.96;24.69
77467;DHT22;66564;42.482;25.548;2023-07-13T11:53:21;41.01;24.86
77467;DHT22;66564;42.482;25.548;2023-07-13T11:55:47;41.05;24.41
77467;DHT22;66564;42.482;25.548;2023-07-13T11:58:17;40.73;25.00
77467;DHT22;66564;42.482;25.548;2023-07-13T12:00:44;40.76;24.89
77467;DHT22;66564;42.482;25.548;2023-07-13T12:03:11;40.77;24.86
77467;DHT22;66564;42.482;25.548;2023-07-13T12:05:37;40.71;25.22
77467;DHT22;66564;42.482;25.548;2023-07-13T12:08:10;40.77;25.38
77467;DHT22;66564;42.482;25.548;2023-07-13T12:10:38;40.90;25.05
77467;DHT22;66564;42.482;25.548;2023-07-13T12:13:05;40.98;25.17
77467;DHT22;66564;42.482;25.548;2023-07-13T12:15:50;40.84;24.62
77467;DHT22;66564;42.482;25.548;2023-07-13T12:18:23;40.91;25.52
77467;DHT22;66564;42.482;25.548;2023-07-13T12:20:50;40.84;25.43
77467;DHT22;66564;42.482;25.548;2023-07-13T12:23:29;40.88;25.57
77467;DHT22;66564;42.482;25.548;2023-07-13T12:25:57;40.88;25.14
77467;DHT22;66564;42.482;25.548;2023-07-13T12:28:51;40.73;25.59
77467;DHT22;66564;42.482;25.548;2023-07-13T12:31:29;40.74;25.42
77467;DHT22;66564;42.482;25.548;2023-07-13T12:34:07;40.29;25.62
77467;DHT22;66564;42.482;25.548;2023-07-13T12:36:35;40.46;25.69
77467;DHT22;66564;42.482;25.548;2023-07-13T12:39:11;40.03;26.49
77467;DHT22;66564;42.482;25.548;2023-07-13T12:41:38;40.17;26.23
77467;DHT22;66564;42.482;25.548;2023-07-13T12:44:07;40.19;26.36
77467;DHT22;66564;42.482;25.548;2023-07-13T12:46:41;40.16;26.40
77467;DHT22;66564;42.482;25.548;2023-07-13T12:49:26;40.12;26.43
77467;DHT22;66564;42.482;25.548;2023-07-13T12:51:56;40.10;26.88
77467;DHT22;66564;42.482;25.548;2023-07-13T12:54:22;40.05;26.84
77467;DHT22;66564;42.482;25.548;2023-07-13T12:56:53;40.08;26.79
77467;DHT22;66564;42.482;25.548;2023-07-13T12:59:21;40.15;26.81
77467;DHT22;66564;42.482;25.548;2023-07-13T13:01:48;40.22;26.53
77467;DHT22;66564;42.482;25.548;2023-07-13T13:04:14;40.23;26.98
77467;DHT22;66564;42.482;25.548;2023-07-13T13:06:40;40.35;26.59
77467;DHT22;66564;42.482;25.548;2023-07-13T13:09:13;40.44;26.70
77467;DHT22;66564;42.482;25.548;2023-07-13T13:11:39;40.52;27.19
77467;DHT22;66564;42.482;25.548;2023-07-13T13:14:05;40.62;27.26
77467;DHT22;66564;42.482;25.548;2023-07-13T13:19:23;40.56;26.12
77467;DHT22;66564;42.482;25.548;2023-07-13T13:21:49;40.50;26.04
77467;DHT22;66564;42.482;25.548;2023-07-13T13:24:20;40.42;25.98
77467;DHT22;66564;42.482;25.548;2023-07-13T13:26:48;40.53;26.23
77467;DHT22;66564;42.482;25.548;2023-07-13T13:29:22;40.67;26.18
77467;DHT22;66564;42.482;25.548;2023-07-13T13:31:51;40.77;26.60
77467;DHT22;66564;42.482;25.548;2023-07-13T13:34:19;40.83;26.62
77467;DHT22;66564;42.482;25.548;2023-07-13T13:36:47;40.98;26.06
77467;DHT22;66564;42.482;25.548;2023-07-13T13:39:24;41.00;25.79
77467;DHT22;66564;42.482;25.548;2023-07-13T13:41:51;41.05;25.94
77467;DHT22;66564;42.482;25.548;2023-07-13T13:44:19;41.13;26.17
77467;DHT22;66564;42.482;25.548;2023-07-13T13:46:50;41.17;24.93
77467;DHT22;66564;42.482;25.548;2023-07-13T13:49:19;41.17;25.32
77467;DHT22;66564;42.482;25.548;2023-07-13T13:51:46;41.13;25.66
77467;DHT22;66564;42.482;25.548;2023-07-13T13:54:13;41.17;25.18
77467;DHT22;66564;42.482;25.548;2023-07-13T13:56:44;40.73;25.19
77467;DHT22;66564;42.482;25.548;2023-07-13T13:59:11;40.80;25.50
77467;DHT22;66564;42.482;25.548;2023-07-13T14:01:37;40.91;26.31
77467;DHT22;66564;42.482;25.548;2023-07-13T14:04:04;40.96;26.06
77467;DHT22;66564;42.482;25.548;2023-07-13T14:06:31;40.93;25.53
77467;DHT22;66564;42.482;25.548;2023-07-13T14:08:57;40.93;26.10
77467;DHT22;66564;42.482;25.548;2023-07-13T14:11:22;40.98;25.34
77467;DHT22;66564;42.482;25.548;2023-07-13T14:13:50;40.97;24.79
77467;DHT22;66564;42.482;25.548;2023-07-13T14:23:00;40.74;25.51
77467;DHT22;66564;42.482;25.548;2023-07-13T14:25:25;40.68;25.35
77467;DHT22;66564;42.482;25.548;2023-07-13T14:27:57;40.62;24.91
77467;DHT22;66564;42.482;25.548;2023-07-13T14:30:24;40.49;24.87
77467;DHT22;66564;42.482;25.548;2023-07-13T14:32:51;40.52;25.31
77467;DHT22;66564;42.482;25.548;2023-07-13T14:35:19;40.60;25.60
77467;DHT22;66564;42.482;25.548;2023-07-13T14:37:45;40.70;25.15
77467;DHT22;66564;42.482;25.548;2023-07-13T14:40:13;40.73;24.45
77467;DHT22;66564;42.482;25.548;2023-07-13T14:42:38;40.66;24.38
77467;DHT22;66564;42.482;25.548;2023-07-13T14:45:04;40.60;24.33
77467;DHT22;66564;42.482;25.548;2023-07-13T14:47:30;40.50;23.53
77467;DHT22;66564;42.482;25.548;2023-07-13T14:49:56;40.49;23.97
77467;DHT22;66564;42.482;25.548;2023-07-13T14:52:23;40.42;24.52
77467;DHT22;66564;42.482;25.548;2023-07-13T14:54:49;40.39;25.12
77467;DHT22;66564;42.482;25.548;2023-07-13T14:57:17;40.30;26.07
77467;DHT22;66564;42.482;25.548;2023-07-13T14:59:44;40.23;26.35
77467;DHT22;66564;42.482;25.548;2023-07-13T15:02:27;40.17;26.78
77467;DHT22;66564;42.482;25.548;2023-07-13T15:04:54;40.10;27.03
77467;DHT22;66564;42.482;25.548;2023-07-13T15:07:20;40.06;27.00
77467;DHT22;66564;42.482;25.548;2023-07-13T15:09:47;39.96;26.87
77467;DHT22;66564;42.482;25.548;2023-07-13T15:12:13;39.89;26.76
77467;DHT22;66564;42.482;25.548;2023-07-13T15:14:39;39.85;26.37
77467;DHT22;66564;42.482;25.548;2023-07-13T15:17:04;39.84;26.63
77467;DHT22;66564;42.482;25.548;2023-07-13T15:19:31;39.72;27.42
77467;DHT22;66564;42.482;25.548;2023-07-13T15:21:57;39.68;27.11
77467;DHT22;66564;42.482;25.548;2023-07-13T15:24:23;39.61;27.01
77467;DHT22;66564;42.482;25.548;2023-07-13T15:26:49;39.52;27.36
77467;DHT22;66564;42.482;25.548;2023-07-13T15:29:15;39.45;27.51
77467;DHT22;66564;42.482;25.548;2023-07-13T15:31:41;39.42;27.78
77467;DHT22;66564;42.482;25.548;2023-07-13T15:34:12;39.37;28.13
77467;DHT22;66564;42.482;25.548;2023-07-13T15:36:39;39.27;28.01
77467;DHT22;66564;42.482;25.548;2023-07-13T15:39:05;39.14;27.80
77467;DHT22;66564;42.482;25.548;2023-07-13T15:41:31;39.05;27.47
77467;DHT22;66564;42.482;25.548;2023-07-13T15:43:59;38.94;27.40
77467;DHT22;66564;42.482;25.548;2023-07-13T15:46:27;38.87;27.70
77467;DHT22;66564;42.482;25.548;2023-07-13T15:48:54;38.83;28.30
77467;DHT22;66564;42.482;25.548;2023-07-13T15:51:30;38.77;28.94
77467;DHT22;66564;42.482;25.548;2023-07-13T15:54:01;38.67;29.20
77467;DHT22;66564;42.482;25.548;2023-07-13T15:56:34;38.61;29.13
77467;DHT22;66564;42.482;25.548;2023-07-13T15:59:00;38.49;29.16
77467;DHT22;66564;42.482;25.548;2023-07-13T16:01:26;38.44;29.38
77467;DHT22;66564;42.482;25.548;2023-07-13T16:03:52;38.40;31.23
77467;DHT22;66564;42.482;25.548;2023-07-13T16:06:28;38.39;32.14
77467;DHT22;66564;42.482;25.548;2023-07-13T16:08:55;38.31;32.65
77467;DHT22;66564;42.482;25.548;2023-07-13T16:11:26;38.30;32.66